Time;durP1;ratioP1;P1;durP2;ratioP2;P2;SDS_P1;SDS_P2;PMS_P1;PMS_P2;Temp;Humidity;BMP_temperature;BMP_pressure;BME280_temperature;BME280_humidity;BME280_pressure;Samples;Min_cycle;Max_cycle;Signal;HPM_P1;HPM_P2
2023/04/11 00:01:28;;;;;;;19.52;4.78;;;;;;;11.20;74.66;100664.31;3605166;39;20407;-68
2023/04/11 00:03:55;;;;;;;20.45;4.40;;;;;;;11.15;75.12;100661.91;3615348;39;20051;-69
2023/04/11 00:06:22;;;;;;;26.38;5.35;;;;;;;11.16;75.18;100657.38;3614909;39;20096;-69
2023/04/11 00:08:47;;;;;;;20.58;4.88;;;;;;;11.12;74.59;100658.56;3615337;39;20055;-69
2023/04/11 00:11:13;;;;;;;25.77;5.03;;;;;;;11.10;74.74;100665.88;3614279;39;20057;-68
2023/04/11 00:13:44;;;;;;;23.33;5.30;;;;;;;11.05;74.10;100659.94;3615326;39;20366;-69
2023/04/11 00:16:10;;;;;;;24.17;4.68;;;;;;;10.99;74.29;100665.72;3610070;39;20646;-69
2023/04/11 00:18:38;;;;;;;18.80;4.30;;;;;;;10.97;74.96;100673.03;3615118;39;20342;-69
2023/04/11 00:21:05;;;;;;;20.83;5.25;;;;;;;10.89;74.81;100674.41;3618010;39;20124;-69
2023/04/11 00:23:31;;;;;;;23.42;5.10;;;;;;;10.82;74.48;100666.84;3619085;39;20385;-70
2023/04/11 00:25:57;;;;;;;26.33;5.75;;;;;;;10.81;74.69;100671.34;3606672;39;20047;-69
2023/04/11 00:28:22;;;;;;;23.88;5.78;;;;;;;10.75;74.49;100666.41;3615594;39;20089;-69
2023/04/11 00:30:48;;;;;;;22.38;5.20;;;;;;;10.69;74.78;100664.09;3615582;39;20061;-69
2023/04/11 00:33:15;;;;;;;21.85;5.40;;;;;;;10.61;75.74;100671.78;3615435;39;20061;-69
2023/04/11 00:35:40;;;;;;;23.20;5.10;;;;;;;10.55;75.48;100672.19;3613918;39;20070;-69
2023/04/11 00:38:06;;;;;;;24.58;5.50;;;;;;;10.40;75.32;100658.78;3613484;39;20424;-69
2023/04/11 00:40:32;;;;;;;22.77;5.45;;;;;;;10.45;76.47;100671.91;3614042;39;20051;-69
2023/04/11 00:42:58;;;;;;;22.55;5.72;;;;;;;10.40;76.25;100674.91;3617050;39;20047;-69
2023/04/11 00:45:23;;;;;;;24.80;5.50;;;;;;;10.38;76.66;100686.69;3615740;39;20063;-69
2023/04/11 00:47:50;;;;;;;25.27;5.63;;;;;;;10.10;75.83;100632.00;3615678;39;20054;-69
2023/04/11 00:50:17;;;;;;;21.55;5.60;;;;;;;10.40;75.88;100674.91;3613537;39;20124;-69
2023/04/11 00:52:48;;;;;;;25.35;5.68;;;;;;;10.41;75.93;100691.88;3613175;39;20082;-68
2023/04/11 00:55:15;;;;;;;26.92;5.28;;;;;;;10.16;76.11;100633.44;3613199;39;20059;-68
2023/04/11 00:57:43;;;;;;;23.00;5.57;;;;;;;10.44;75.32;100680.94;3613215;39;20058;-68
2023/04/11 01:00:10;;;;;;;24.45;5.35;;;;;;;10.35;75.06;100654.66;3613222;39;20043;-68
2023/04/11 01:02:41;;;;;;;23.00;5.60;;;;;;;10.50;75.28;100674.28;3616967;39;20285;-68
2023/04/11 01:05:09;;;;;;;25.70;5.45;;;;;;;10.50;75.41;100679.66;3614592;39;20308;-69
2023/04/11 01:07:39;;;;;;;25.02;6.25;;;;;;;10.21;74.83;100625.94;3613368;39;20050;-68
2023/04/11 01:10:06;;;;;;;25.73;5.80;;;;;;;10.47;75.04;100675.38;3612909;39;20409;-69
2023/04/11 01:12:34;;;;;;;25.45;5.28;;;;;;;10.50;75.33;100672.50;3607003;39;20059;-68
2023/04/11 01:15:00;;;;;;;30.33;6.32;;;;;;;10.50;74.44;100666.22;3614046;39;20042;-69
2023/04/11 01:17:26;;;;;;;20.95;5.28;;;;;;;10.45;75.48;100677.28;3613713;39;20058;-69
2023/04/11 01:19:52;;;;;;;30.17;5.82;;;;;;;10.42;74.91;100672.09;3613752;39;20046;-69
2023/04/11 01:22:21;;;;;;;25.15;5.55;;;;;;;10.39;74.78;100673.16;3614587;39;20070;-69
2023/04/11 01:24:48;;;;;;;23.98;5.47;;;;;;;10.35;75.77;100663.56;3616526;39;20147;-69
2023/04/11 01:27:13;;;;;;;30.60;5.85;;;;;;;10.33;75.24;100667.31;3617580;39;20074;-68
2023/04/11 01:29:39;;;;;;;24.98;5.57;;;;;;;10.28;74.88;100654.19;3616484;39;20100;-69
2023/04/11 01:32:05;;;;;;;21.92;4.97;;;;;;;10.26;75.87;100661.47;3615851;39;20058;-69
2023/04/11 01:34:34;;;;;;;25.35;5.05;;;;;;;10.20;76.13;100665.34;3616290;39;20055;-68
2023/04/11 01:37:01;;;;;;;22.75;4.88;;;;;;;10.14;76.13;100671.13;3616208;39;20297;-69
2023/04/11 01:39:27;;;;;;;24.23;5.32;;;;;;;10.07;75.76;100666.22;3622197;39;20059;-69
2023/04/11 01:41:57;;;;;;;23.42;5.15;;;;;;;10.10;75.90;100688.38;3616365;39;20051;-69
2023/04/11 01:44:25;;;;;;;25.80;5.68;;;;;;;10.08;75.53;100684.06;3619995;39;20163;-69
2023/04/11 01:46:51;;;;;;;25.73;5.20;;;;;;;10.07;76.15;100690.41;3619329;39;20106;-68
2023/04/11 01:49:17;;;;;;;27.98;6.20;;;;;;;10.02;76.07;100696.03;3617754;39;20356;-69
2023/04/11 01:51:43;;;;;;;29.85;5.53;;;;;;;10.00;75.68;100701.53;3612904;39;20325;-69
2023/04/11 01:54:09;;;;;;;21.20;4.70;;;;;;;9.76;75.98;100668.13;3615936;39;20058;-69
2023/04/11 01:56:35;;;;;;;29.25;5.70;;;;;;;9.95;76.49;100703.63;3614140;39;20377;-69
2023/04/11 01:59:01;;;;;;;26.40;5.28;;;;;;;9.93;76.17;100708.25;3614623;39;20054;-69
2023/04/11 02:01:27;;;;;;;26.42;5.65;;;;;;;9.89;76.53;100704.00;3614812;39;20065;-69
2023/04/11 02:03:52;;;;;;;24.38;5.20;;;;;;;9.88;76.97;100704.97;3615577;39;20053;-69
2023/04/11 02:06:18;;;;;;;28.75;5.68;;;;;;;9.87;76.58;100702.38;3620576;39;20300;-69
2023/04/11 02:08:44;;;;;;;23.52;5.43;;;;;;;9.91;76.08;100711.97;3621184;39;20066;-69
2023/04/11 02:11:10;;;;;;;25.85;5.45;;;;;;;9.92;76.29;100722.59;3616296;39;20065;-69
2023/04/11 02:13:35;;;;;;;24.67;5.28;;;;;;;9.89;75.93;100713.88;3617135;39;20050;-69
2023/04/11 02:16:16;;;;;;;22.42;5.15;;;;;;;9.97;76.13;100720.50;3616223;39;20061;-68
2023/04/11 02:18:44;;;;;;;25.83;5.43;;;;;;;9.96;76.46;100713.41;3616213;39;20077;-69
2023/04/11 02:21:11;;;;;;;26.55;6.15;;;;;;;10.02;75.57;100720.22;3616016;39;20095;-69
2023/04/11 02:23:37;;;;;;;23.63;5.30;;;;;;;9.79;75.84;100685.88;3623114;39;20415;-70
2023/04/11 02:26:03;;;;;;;28.52;5.72;;;;;;;10.08;76.18;100725.22;3618638;39;20106;-70
2023/04/11 02:28:29;;;;;;;23.83;5.15;;;;;;;10.08;75.09;100716.28;3618121;39;20049;-69
2023/04/11 02:30:55;;;;;;;26.52;6.35;;;;;;;10.06;75.01;100726.28;3610404;39;20050;-69
2023/04/11 02:33:21;;;;;;;32.90;6.80;;;;;;;10.03;75.10;100710.38;3609048;39;20110;-69
2023/04/11 02:35:47;;;;;;;22.52;5.32;;;;;;;10.16;74.98;100730.13;3618971;39;20094;-69
2023/04/11 02:38:13;;;;;;;20.70;4.80;;;;;;;10.17;75.03;100737.22;3618809;39;20079;-69
2023/04/11 02:40:39;;;;;;;21.33;5.53;;;;;;;10.18;74.03;100733.56;3617987;39;20143;-69
2023/04/11 02:43:05;;;;;;;22.65;5.18;;;;;;;10.19;73.98;100725.44;3617059;39;20296;-69
2023/04/11 02:45:31;;;;;;;22.13;4.95;;;;;;;10.22;74.22;100730.63;3614197;39;20043;-69
2023/04/11 02:47:57;;;;;;;21.73;5.13;;;;;;;10.25;74.05;100742.13;3620987;39;20086;-69
2023/04/11 02:50:25;;;;;;;24.35;5.30;;;;;;;10.23;73.04;100743.06;3617567;39;20066;-69
2023/04/11 02:52:51;;;;;;;27.90;5.15;;;;;;;10.26;72.63;100736.69;3621050;39;20250;-69
2023/04/11 02:55:17;;;;;;;21.80;4.80;;;;;;;10.27;73.48;100745.59;3614127;39;20506;-69
2023/04/11 02:57:43;;;;;;;18.70;4.13;;;;;;;10.26;73.10;100735.78;3614108;39;20474;-69
2023/04/11 03:00:09;;;;;;;18.88;5.38;;;;;;;10.22;72.76;100740.50;3613971;39;20054;-69
2023/04/11 03:02:35;;;;;;;20.10;4.53;;;;;;;10.22;72.71;100748.56;3613410;39;20362;-69
2023/04/11 03:05:02;;;;;;;16.02;4.15;;;;;;;10.21;71.92;100741.44;3614778;39;20410;-69
2023/04/11 03:07:31;;;;;;;17.52;5.07;;;;;;;10.20;71.84;100747.78;3614972;39;20047;-69
2023/04/11 03:09:56;;;;;;;22.27;4.60;;;;;;;10.10;72.54;100725.13;3618142;39;20050;-69
2023/04/11 03:12:22;;;;;;;18.20;4.30;;;;;;;10.12;71.88;100742.88;3614052;39;20769;-68
2023/04/11 03:14:48;;;;;;;20.92;4.10;;;;;;;10.09;71.46;100750.28;3619512;39;20051;-70
2023/04/11 03:17:13;;;;;;;16.33;3.92;;;;;;;9.97;71.04;100733.94;3613617;39;20396;-69
2023/04/11 03:19:39;;;;;;;15.10;3.70;;;;;;;10.02;71.26;100749.75;3617649;39;20054;-69
2023/04/11 03:22:04;;;;;;;24.23;4.05;;;;;;;9.95;70.82;100749.25;3607597;39;20369;-69
2023/04/11 03:24:31;;;;;;;14.90;3.10;;;;;;;9.93;70.78;100756.56;3617674;39;20039;-69
2023/04/11 03:26:57;;;;;;;15.32;3.10;;;;;;;9.90;70.99;100764.81;3617713;39;20316;-69
2023/04/11 03:29:23;;;;;;;11.85;3.25;;;;;;;9.90;71.64;100770.19;3615700;39;20075;-69
2023/04/11 03:31:49;;;;;;;16.08;3.38;;;;;;;9.86;71.60;100771.28;3617045;39;20049;-69
2023/04/11 03:34:16;;;;;;;20.00;6.15;;;;;;;9.88;71.26;100777.44;3614465;39;20051;-69
2023/04/11 03:36:42;;;;;;;13.65;3.40;;;;;;;9.90;71.02;100772.88;3614400;39;20071;-69
2023/04/11 03:39:08;;;;;;;15.85;3.40;;;;;;;9.91;70.94;100774.59;3618251;39;20110;-69
2023/04/11 03:41:33;;;;;;;13.02;3.25;;;;;;;9.89;70.82;100781.84;3614440;39;20058;-69
2023/04/11 03:43:59;;;;;;;17.13;3.70;;;;;;;9.90;71.32;100790.81;3617294;39;20050;-68
2023/04/11 03:46:25;;;;;;;13.25;2.88;;;;;;;9.84;70.71;100783.09;3617097;39;20058;-70
2023/04/11 03:48:50;;;;;;;14.45;2.63;;;;;;;9.85;70.86;100788.38;3609935;39;20047;-69
2023/04/11 03:51:16;;;;;;;13.50;3.55;;;;;;;9.84;70.57;100789.34;3614553;39;20055;-69
2023/04/11 03:53:42;;;;;;;17.60;3.47;;;;;;;9.82;69.71;100790.38;3614455;39;20424;-69
2023/04/11 03:56:08;;;;;;;9.82;2.53;;;;;;;9.84;69.98;100792.03;3614217;39;20042;-69
2023/04/11 03:58:34;;;;;;;15.23;2.80;;;;;;;9.81;69.71;100784.16;3614546;39;20326;-69
2023/04/11 04:01:01;;;;;;;12.75;2.83;;;;;;;9.83;69.86;100795.66;3614455;39;20050;-69
2023/04/11 04:03:27;;;;;;;11.23;2.90;;;;;;;9.73;70.24;100784.59;3614233;39;20054;-69
2023/04/11 04:05:53;;;;;;;14.40;2.88;;;;;;;9.74;70.19;100793.53;3614109;39;20050;-69
2023/04/11 04:08:18;;;;;;;18.08;3.50;;;;;;;9.45;69.60;100747.78;3613705;39;20071;-70
2023/04/11 04:10:45;;;;;;;16.20;3.42;;;;;;;9.72;70.23;100795.44;3614551;39;20479;-69
2023/04/11 04:13:11;;;;;;;19.52;4.05;;;;;;;9.65;70.05;100777.97;3606305;39;20104;-69
2023/04/11 04:15:37;;;;;;;18.13;4.18;;;;;;;9.45;70.11;100745.13;3616057;39;20051;-70
2023/04/11 04:18:03;;;;;;;20.17;3.83;;;;;;;9.69;70.65;100798.28;3615522;39;20058;-69
2023/04/11 04:20:29;;;;;;;12.65;3.58;;;;;;;9.68;70.52;100799.25;3613724;39;20057;-69
2023/04/11 04:22:54;;;;;;;17.33;4.05;;;;;;;9.61;70.33;100797.84;3616548;39;20054;-69
2023/04/11 04:25:20;;;;;;;21.33;4.15;;;;;;;9.59;70.64;100803.34;3613364;39;20058;-69
2023/04/11 04:27:46;;;;;;;20.98;4.53;;;;;;;9.53;71.39;100801.00;3613867;39;20313;-69
2023/04/11 04:30:15;;;;;;;18.35;4.22;;;;;;;9.48;71.26;100814.69;3613662;39;20404;-68
2023/04/11 04:32:44;;;;;;;13.35;4.05;;;;;;;9.43;71.45;100811.41;3613302;39;20177;-68
2023/04/11 04:35:15;;;;;;;21.95;5.10;;;;;;;9.37;72.03;100816.25;3616952;39;20062;-68
2023/04/11 04:37:44;;;;;;;19.48;4.82;;;;;;;9.33;72.76;100828.13;3613582;39;20149;-68
2023/04/11 04:40:19;;;;;;;16.35;3.97;;;;;;;9.30;72.08;100831.84;3612904;39;20086;-70
2023/04/11 04:42:48;;;;;;;20.77;5.13;;;;;;;9.07;72.67;100809.00;3616338;39;20063;-68
2023/04/11 04:45:15;;;;;;;21.40;5.22;;;;;;;9.21;73.15;100837.72;3615034;39;20244;-68
2023/04/11 04:47:41;;;;;;;14.98;4.32;;;;;;;9.19;73.27;100836.91;3614138;39;20053;-68
2023/04/11 04:50:07;;;;;;;21.58;4.57;;;;;;;9.15;72.60;100843.41;3614426;39;20399;-68
2023/04/11 04:52:33;;;;;;;21.45;4.30;;;;;;;8.98;73.09;100821.09;3604255;39;20043;-68
2023/04/11 04:55:00;;;;;;;15.45;3.95;;;;;;;9.03;73.17;100835.09;3612710;39;20046;-69
2023/04/11 04:57:32;;;;;;;20.05;4.43;;;;;;;9.09;73.63;100844.63;3613479;39;20117;-69
2023/04/11 04:59:58;;;;;;;16.63;3.60;;;;;;;9.05;73.04;100853.78;3613661;39;20050;-68
2023/04/11 05:02:25;;;;;;;22.45;4.15;;;;;;;8.74;73.38;100807.22;3613606;39;20074;-68
2023/04/11 05:04:52;;;;;;;18.40;3.90;;;;;;;9.02;73.83;100860.19;3613660;39;20078;-68
2023/04/11 05:07:19;;;;;;;24.75;4.07;;;;;;;9.00;73.55;100862.06;3616380;39;20059;-69
2023/04/11 05:09:46;;;;;;;12.90;3.05;;;;;;;8.83;73.32;100852.28;3613661;39;20053;-67
2023/04/11 05:12:14;;;;;;;10.40;2.70;;;;;;;8.97;73.27;100872.09;3612999;39;20085;-68
2023/04/11 05:14:39;;;;;;;22.40;3.72;;;;;;;8.96;73.83;100871.25;3614453;39;20373;-67
2023/04/11 05:17:05;;;;;;;18.75;3.53;;;;;;;8.95;73.23;100872.19;3604996;39;20124;-67
2023/04/11 05:19:31;;;;;;;14.43;2.97;;;;;;;8.94;73.81;100877.63;3614100;39;20067;-67
2023/04/11 05:21:57;;;;;;;13.43;3.28;;;;;;;8.90;73.86;100882.28;3614962;39;20425;-67
2023/04/11 05:24:22;;;;;;;16.92;3.30;;;;;;;8.91;73.50;100877.78;3616198;39;20407;-69
2023/04/11 05:26:48;;;;;;;13.27;2.50;;;;;;;8.90;73.80;100879.63;3613662;39;20053;-68
2023/04/11 05:29:14;;;;;;;17.63;3.25;;;;;;;8.92;73.87;100879.53;3613890;39;20047;-69
2023/04/11 05:31:39;;;;;;;18.35;3.15;;;;;;;8.96;73.84;100883.78;3613905;39;20055;-67
2023/04/11 05:34:05;;;;;;;9.18;2.38;;;;;;;9.02;73.65;100892.34;3613254;39;20047;-69
2023/04/11 05:36:31;;;;;;;13.10;2.95;;;;;;;9.03;72.82;100885.16;3613992;39;20621;-68
2023/04/11 05:38:56;;;;;;;10.05;2.47;;;;;;;9.05;72.65;100897.56;3614127;39;20043;-68
2023/04/11 05:41:22;;;;;;;14.80;3.10;;;;;;;9.02;72.87;100887.00;3615337;39;20119;-67
2023/04/11 05:43:48;;;;;;;16.13;2.70;;;;;;;9.10;72.51;100907.16;3617215;39;20398;-69
2023/04/11 05:46:13;;;;;;;13.27;2.72;;;;;;;9.02;72.27;100905.75;3615121;39;20057;-68
2023/04/11 05:48:40;;;;;;;15.40;3.10;;;;;;;9.07;72.68;100911.75;3617628;39;20058;-68
2023/04/11 05:51:06;;;;;;;12.35;2.70;;;;;;;9.09;72.33;100906.28;3615198;39;20047;-68
2023/04/11 05:53:32;;;;;;;16.85;3.50;;;;;;;9.13;71.91;100915.91;3607934;39;20050;-69
2023/04/11 05:55:58;;;;;;;11.50;2.35;;;;;;;9.00;71.76;100899.59;3615532;39;20047;-69
2023/04/11 05:58:24;;;;;;;14.23;3.42;;;;;;;9.18;72.13;100921.03;3615190;39;20050;-68
2023/04/11 06:00:50;;;;;;;21.10;3.28;;;;;;;9.25;71.76;100923.28;3606422;39;20104;-68
2023/04/11 06:03:16;;;;;;;14.77;3.28;;;;;;;9.30;72.40;100928.41;3616272;39;20059;-69
2023/04/11 06:05:42;;;;;;;12.73;2.85;;;;;;;9.25;71.80;100935.81;3615319;39;20376;-69
2023/04/11 06:08:08;;;;;;;12.82;3.38;;;;;;;9.24;71.82;100934.09;3615334;39;20411;-68
2023/04/11 06:10:34;;;;;;;16.08;3.28;;;;;;;9.29;71.26;100932.00;3618431;39;20094;-69
2023/04/11 06:13:00;;;;;;;13.23;3.60;;;;;;;9.33;71.79;100938.97;3615093;39;20050;-68
2023/04/11 06:15:26;;;;;;;15.05;3.05;;;;;;;9.40;71.50;100937.69;3614986;39;20087;-68
2023/04/11 06:17:53;;;;;;;13.00;3.17;;;;;;;9.45;71.13;100932.94;3618566;39;20386;-68
2023/04/11 06:20:21;;;;;;;18.08;3.63;;;;;;;9.48;71.63;100930.06;3616034;39;20054;-69
2023/04/11 06:22:50;;;;;;;16.55;3.25;;;;;;;9.60;71.55;100941.94;3615461;39;20420;-69
2023/04/11 06:25:19;;;;;;;13.90;3.17;;;;;;;9.67;70.52;100947.81;3615085;39;20059;-67
2023/04/11 06:27:46;;;;;;;13.68;3.63;;;;;;;9.71;70.30;100946.72;3615764;39;20061;-67
2023/04/11 06:30:13;;;;;;;13.68;3.47;;;;;;;9.83;69.65;100951.38;3616688;39;20425;-67
2023/04/11 06:32:38;;;;;;;15.52;3.83;;;;;;;9.88;69.61;100941.22;3615006;39;20066;-69
2023/04/11 06:35:04;;;;;;;17.58;3.60;;;;;;;10.01;69.20;100954.81;3614227;39;20051;-68
2023/04/11 06:37:30;;;;;;;18.60;3.22;;;;;;;10.16;68.99;100953.94;3615030;39;20050;-68
2023/04/11 06:39:58;;;;;;;14.85;3.72;;;;;;;10.29;68.83;100962.19;3615299;39;20305;-68
2023/04/11 06:42:23;;;;;;;15.68;3.60;;;;;;;10.40;68.13;100964.22;3616883;39;20050;-67
2023/04/11 06:44:49;;;;;;;17.23;3.63;;;;;;;10.56;67.04;100964.19;3618993;39;20050;-68
2023/04/11 06:47:14;;;;;;;12.23;3.10;;;;;;;10.37;66.77;100908.88;3616102;39;20047;-68
2023/04/11 06:49:40;;;;;;;19.23;4.03;;;;;;;10.87;66.69;100980.22;3619897;39;20056;-67
2023/04/11 06:52:06;;;;;;;13.45;3.35;;;;;;;10.98;65.49;100986.78;3605410;39;20130;-68
2023/04/11 06:54:32;;;;;;;16.95;3.90;;;;;;;11.10;65.12;100976.13;3616063;39;20347;-68
2023/04/11 06:56:57;;;;;;;15.45;3.92;;;;;;;11.20;64.62;100984.50;3603738;39;20051;-68
2023/04/11 06:59:23;;;;;;;18.83;4.57;;;;;;;11.32;63.97;100980.16;3617169;39;20047;-68
2023/04/11 07:01:49;;;;;;;12.75;4.13;;;;;;;11.34;63.82;100979.09;3616861;39;20821;-68
2023/04/11 07:04:15;;;;;;;17.75;4.10;;;;;;;11.34;63.91;100978.25;3616722;39;20058;-69
2023/04/11 07:06:41;;;;;;;21.50;4.82;;;;;;;11.36;64.45;100993.34;3614206;39;20047;-68
2023/04/11 07:09:13;;;;;;;22.73;4.68;;;;;;;11.34;64.54;100984.50;3614104;39;20409;-68
2023/04/11 07:11:39;;;;;;;16.85;4.40;;;;;;;11.53;63.93;100986.03;3617312;39;20058;-68
2023/04/11 07:14:05;;;;;;;14.50;3.90;;;;;;;11.73;63.00;100984.75;3614204;39;20059;-68
2023/04/11 07:16:31;;;;;;;16.08;4.80;;;;;;;11.92;62.51;100995.25;3614146;39;20086;-69
2023/04/11 07:18:58;;;;;;;17.10;4.13;;;;;;;11.99;61.74;100980.44;3617284;39;20075;-69
2023/04/11 07:21:29;;;;;;;16.63;4.60;;;;;;;11.92;61.92;100997.94;3616052;39;20054;-68
2023/04/11 07:23:55;;;;;;;14.90;4.55;;;;;;;11.93;61.30;100999.69;3616988;39;20264;-68
2023/04/11 07:26:22;;;;;;;13.75;3.60;;;;;;;11.99;60.35;101002.84;3614276;39;20050;-68
2023/04/11 07:28:48;;;;;;;17.85;4.05;;;;;;;12.12;59.80;101007.44;3614285;39;20450;-68
2023/04/11 07:31:16;;;;;;;18.00;4.53;;;;;;;12.27;60.00;101014.50;3616133;39;20416;-68
2023/04/11 07:33:42;;;;;;;12.35;3.50;;;;;;;12.06;60.13;101006.00;3614892;39;20046;-67
2023/04/11 07:36:09;;;;;;;12.88;3.55;;;;;;;11.69;60.72;100945.53;3617068;39;20377;-68
2023/04/11 07:38:36;;;;;;;12.63;3.70;;;;;;;12.18;60.40;101018.69;3603445;39;20051;-69
2023/04/11 07:41:04;;;;;;;12.40;3.50;;;;;;;12.22;61.00;101025.59;3614879;39;20078;-69
2023/04/11 07:43:30;;;;;;;20.90;4.28;;;;;;;12.25;59.78;101024.53;3620005;39;20054;-69
2023/04/11 07:45:57;;;;;;;13.70;3.78;;;;;;;12.03;60.66;100992.72;3615852;39;20483;-69
2023/04/11 07:48:26;;;;;;;14.43;3.45;;;;;;;12.23;59.82;101027.31;3618502;39;20046;-69
2023/04/11 07:50:53;;;;;;;12.32;3.45;;;;;;;12.51;58.94;101029.03;3604954;39;20055;-68
2023/04/11 07:53:20;;;;;;;9.93;3.00;;;;;;;12.48;57.53;101023.00;3614230;39;20053;-69
2023/04/11 07:55:46;;;;;;;14.65;3.42;;;;;;;12.45;58.11;101025.91;3615245;39;20139;-69
2023/04/11 07:58:12;;;;;;;12.30;3.10;;;;;;;12.24;58.12;100999.41;3615837;39;20054;-68
2023/04/11 08:00:37;;;;;;;12.85;3.20;;;;;;;12.35;58.15;101024.78;3615785;39;20042;-69
2023/04/11 08:03:07;;;;;;;9.52;3.15;;;;;;;12.50;58.05;101023.78;3620635;39;20050;-68
2023/04/11 08:05:35;;;;;;;12.40;3.25;;;;;;;12.72;57.72;101025.88;3614710;39;20055;-69
2023/04/11 08:08:02;;;;;;;11.93;2.50;;;;;;;13.00;56.59;101049.13;3614024;39;20053;-67
2023/04/11 08:10:28;;;;;;;8.75;2.28;;;;;;;13.18;53.46;101049.72;3618068;39;20309;-68
2023/04/11 08:12:54;;;;;;;10.73;3.00;;;;;;;12.89;54.17;101019.34;3614160;39;20050;-69
2023/04/11 08:15:21;;;;;;;11.07;2.63;;;;;;;13.22;53.58;101029.63;3615873;39;20306;-67
2023/04/11 08:17:48;;;;;;;10.27;2.67;;;;;;;13.49;53.26;101045.78;3613427;39;20696;-67
2023/04/11 08:20:16;;;;;;;9.63;2.70;;;;;;;13.65;54.36;101056.34;3615234;39;20050;-68
2023/04/11 08:22:45;;;;;;;8.43;2.13;;;;;;;13.58;52.06;101037.03;3614517;39;20069;-68
2023/04/11 08:25:13;;;;;;;9.88;2.60;;;;;;;13.87;51.72;101061.09;3616197;39;20119;-68
2023/04/11 08:27:40;;;;;;;8.65;2.25;;;;;;;13.80;50.94;101066.06;3618271;39;20058;-68
2023/04/11 08:30:07;;;;;;;8.80;2.20;;;;;;;13.76;50.52;101075.34;3613641;39;20051;-68
2023/04/11 08:32:34;;;;;;;9.13;2.10;;;;;;;13.75;50.68;101067.38;3614065;39;20051;-68
2023/04/11 08:35:00;;;;;;;8.95;2.42;;;;;;;13.88;50.15;101069.06;3614445;39;20091;-68
2023/04/11 08:37:29;;;;;;;9.80;2.50;;;;;;;13.70;50.14;101073.09;3614144;39;20063;-68
2023/04/11 08:39:55;;;;;;;10.70;2.33;;;;;;;13.50;51.73;101071.78;3614904;39;20078;-68
2023/04/11 08:42:30;;;;;;;10.73;2.13;;;;;;;13.13;51.91;101050.03;3616931;39;20093;-68
2023/04/11 08:44:59;;;;;;;8.20;2.00;;;;;;;13.35;52.25;101079.16;3614274;39;20070;-68
2023/04/11 08:47:25;;;;;;;10.38;2.63;;;;;;;13.63;52.01;101088.00;3613848;39;20312;-69
2023/04/11 08:49:52;;;;;;;12.40;2.72;;;;;;;13.92;52.52;101085.94;3617249;39;20058;-68
2023/04/11 08:52:19;;;;;;;8.07;2.40;;;;;;;14.00;50.87;101093.50;3614654;39;20043;-68
2023/04/11 08:54:46;;;;;;;7.35;2.17;;;;;;;13.69;50.33;101080.31;3615867;39;20063;-68
2023/04/11 08:57:38;;;;;;;9.63;2.22;;;;;;;13.56;50.82;101078.63;3613075;39;20103;-68
2023/04/11 09:00:17;;;;;;;10.90;2.63;;;;;;;13.48;52.52;101081.88;3616154;39;20062;-68
2023/04/11 09:02:58;;;;;;;11.38;2.13;;;;;;;13.39;53.63;101086.06;3613860;39;20061;-69
2023/04/11 09:05:32;;;;;;;11.48;2.70;;;;;;;13.17;52.18;101072.28;3615100;39;20050;-67
2023/04/11 09:08:03;;;;;;;8.88;2.28;;;;;;;12.98;53.55;101034.91;3614644;39;20128;-69
2023/04/11 09:10:29;;;;;;;5.15;2.13;;;;;;;13.49;53.04;101078.19;3614918;39;20095;-69
2023/04/11 09:12:56;;;;;;;11.05;2.50;;;;;;;13.63;52.08;101061.84;3613844;39;20063;-70
2023/04/11 09:15:26;;;;;;;16.83;2.75;;;;;;;14.03;51.65;101074.38;3613560;39;20051;-69
2023/04/11 09:17:53;;;;;;;6.65;1.80;;;;;;;14.38;50.03;101077.19;3618465;39;20124;-69
2023/04/11 09:20:26;;;;;;;9.18;2.00;;;;;;;14.25;48.44;101089.88;3620816;39;20054;-69
2023/04/11 09:22:52;;;;;;;6.43;2.03;;;;;;;14.12;48.90;101089.91;3617916;39;20054;-69
2023/04/11 09:25:20;;;;;;;9.95;2.20;;;;;;;13.96;48.79;101095.56;3617172;39;20109;-68
2023/04/11 09:27:47;;;;;;;10.20;2.38;;;;;;;14.07;47.28;101092.94;3614927;39;20059;-68
2023/04/11 09:30:25;;;;;;;8.00;1.88;;;;;;;13.97;46.51;101072.97;3614456;39;20067;-68
2023/04/11 09:32:53;;;;;;;7.28;2.08;;;;;;;13.35;47.42;101018.88;3616037;39;20123;-69
2023/04/11 09:35:23;;;;;;;7.28;1.73;;;;;;;13.72;48.64;101100.00;3611834;39;20047;-68
2023/04/11 09:37:59;;;;;;;8.55;1.83;;;;;;;13.86;49.29;101087.25;3610485;39;20470;-68
2023/04/11 09:40:30;;;;;;;12.52;2.47;;;;;;;14.14;49.92;101102.34;3617977;39;20039;-68
2023/04/11 09:43:02;;;;;;;7.22;1.95;;;;;;;14.36;46.29;101106.19;3616016;39;20358;-67
2023/04/11 09:45:30;;;;;;;8.38;2.13;;;;;;;14.37;45.19;101070.06;3615782;39;20054;-67
2023/04/11 09:47:58;;;;;;;8.23;1.90;;;;;;;14.86;45.07;101109.72;3618558;39;20046;-68
2023/04/11 09:50:26;;;;;;;9.65;1.98;;;;;;;15.21;44.17;101109.72;3612906;39;20053;-68
2023/04/11 09:52:54;;;;;;;5.15;1.60;;;;;;;15.32;41.85;101108.91;3614259;39;20074;-68
2023/04/11 09:55:24;;;;;;;4.68;1.35;;;;;;;15.04;41.47;101010.00;3616289;39;20051;-68
2023/04/11 09:57:52;;;;;;;9.70;1.88;;;;;;;15.87;40.70;101111.88;3607628;39;20098;-68
2023/04/11 10:00:23;;;;;;;5.72;1.77;;;;;;;16.04;40.36;101108.66;3613371;39;20240;-67
2023/04/11 10:02:52;;;;;;;8.35;1.77;;;;;;;16.18;40.23;101105.72;3612185;39;20049;-68
2023/04/11 10:05:24;;;;;;;6.50;1.40;;;;;;;16.04;38.14;101078.84;3613167;39;20043;-68
2023/04/11 10:08:21;;;;;;;5.85;1.85;;;;;;;16.19;36.92;101079.47;3613234;39;20058;-67
2023/04/11 10:10:47;;;;;;;5.85;1.50;;;;;;;16.36;37.33;101107.91;3603205;39;20352;-68
2023/04/11 10:13:45;;;;;;;7.57;1.83;;;;;;;16.57;37.50;101108.88;3612786;39;20039;-67
2023/04/11 10:16:13;;;;;;;5.82;1.50;;;;;;;16.58;37.48;101104.28;3616750;39;20454;-67
2023/04/11 10:18:50;;;;;;;4.30;1.33;;;;;;;16.64;35.45;101101.06;3612501;39;20091;-67
2023/04/11 10:21:35;;;;;;;5.22;1.73;;;;;;;16.67;36.08;101092.69;3619557;39;20310;-68
2023/04/11 10:24:15;;;;;;;4.70;1.27;;;;;;;16.72;35.98;101095.88;3616054;39;20275;-67
2023/04/11 10:26:58;;;;;;;6.43;1.85;;;;;;;16.70;36.60;101104.13;3617556;39;20058;-67
2023/04/11 10:29:27;;;;;;;6.45;1.50;;;;;;;16.78;35.95;101098.13;3614595;39;20054;-67
2023/04/11 10:32:13;;;;;;;3.17;1.40;;;;;;;16.82;36.49;101102.28;3614641;39;20086;-67
2023/04/11 10:34:59;;;;;;;5.57;1.30;;;;;;;16.87;35.40;101097.34;3606165;39;20067;-67
2023/04/11 10:37:36;;;;;;;7.20;1.95;;;;;;;16.74;35.41;101061.31;3614131;39;20134;-68
2023/04/11 10:40:08;;;;;;;6.53;1.42;;;;;;;17.04;35.25;101082.34;3616820;39;20320;-68
2023/04/11 10:42:38;;;;;;;6.72;1.90;;;;;;;17.03;36.42;101086.06;3616501;39;20050;-68
2023/04/11 10:45:29;;;;;;;5.20;1.90;;;;;;;17.25;35.51;101089.63;3618175;39;20059;-68
2023/04/11 10:48:10;;;;;;;6.80;1.55;;;;;;;17.09;35.45;101100.94;3606568;39;20058;-68
2023/04/11 10:50:44;;;;;;;6.43;1.73;;;;;;;16.66;35.46;101099.09;3617137;39;20061;-67
2023/04/11 10:53:35;;;;;;;6.10;1.50;;;;;;;16.72;36.35;101101.31;3617634;39;20054;-68
2023/04/11 10:56:01;;;;;;;6.90;1.77;;;;;;;16.72;36.34;101114.88;3618508;39;20119;-68
2023/04/11 10:58:38;;;;;;;5.65;1.83;;;;;;;16.94;36.96;101101.28;3614558;39;20296;-68
2023/04/11 11:01:15;;;;;;;7.72;1.75;;;;;;;16.94;35.44;101089.56;3614372;39;20058;-68
2023/04/11 11:03:52;;;;;;;7.32;1.63;;;;;;;17.38;35.24;101096.63;3616490;39;20055;-68
2023/04/11 11:06:19;;;;;;;3.75;1.40;;;;;;;17.64;34.65;101101.66;3614545;39;20043;-68
2023/04/11 11:08:45;;;;;;;5.53;1.67;;;;;;;17.63;34.23;101105.34;3614339;39;20067;-68
2023/04/11 11:11:13;;;;;;;9.10;1.80;;;;;;;17.77;35.19;101105.03;3610567;39;20058;-68
2023/04/11 11:13:39;;;;;;;6.75;1.73;;;;;;;17.89;35.78;101105.81;3614455;39;20055;-68
2023/04/11 11:16:07;;;;;;;5.90;1.65;;;;;;;17.95;35.69;101098.97;3614316;39;20048;-68
2023/04/11 11:18:33;;;;;;;7.13;1.85;;;;;;;17.56;34.60;101079.69;3613981;39;20378;-68
2023/04/11 11:20:59;;;;;;;5.88;1.60;;;;;;;17.64;34.83;101107.94;3616086;39;20046;-66
2023/04/11 11:23:26;;;;;;;4.88;1.45;;;;;;;17.51;34.40;101111.88;3607354;39;20054;-66
2023/04/11 11:25:57;;;;;;;3.97;1.33;;;;;;;17.14;34.41;101109.56;3614833;39;20059;-67